Time;durP1;ratioP1;P1;durP2;ratioP2;P2;SDS_P1;SDS_P2;PMS_P1;PMS_P2;Temp;Humidity;BMP_temperature;BMP_pressure;BME280_temperature;BME280_humidity;BME280_pressure;Samples;Min_cycle;Max_cycle;Signal;HPM_P1;HPM_P2
2023/08/27 00:01:12;;;;;;;5.72;3.17;;;14.80;99.90;;;;;;5032885;28;20044;-73
2023/08/27 00:03:37;;;;;;;4.65;3.20;;;14.80;99.90;;;;;;5042454;28;20709;-73
2023/08/27 00:06:03;;;;;;;7.53;3.75;;;14.80;99.90;;;;;;5029931;28;20037;-73
2023/08/27 00:08:28;;;;;;;6.47;3.10;;;14.80;99.90;;;;;;5033644;28;20090;-73
2023/08/27 00:11:01;;;;;;;6.50;3.20;;;14.80;99.90;;;;;;5039795;28;20064;-73
2023/08/27 00:13:27;;;;;;;6.38;3.45;;;14.80;99.90;;;;;;5050376;28;20076;-73
2023/08/27 00:15:52;;;;;;;5.53;2.80;;;14.80;99.90;;;;;;5034012;28;20057;-73
2023/08/27 00:18:18;;;;;;;5.85;3.28;;;14.70;99.90;;;;;;5013649;28;20045;-74
2023/08/27 00:20:48;;;;;;;6.15;2.88;;;14.70;99.90;;;;;;5040414;28;20032;-73
2023/08/27 00:23:13;;;;;;;6.22;2.92;;;14.70;99.90;;;;;;5033480;28;20064;-73
2023/08/27 00:25:40;;;;;;;6.60;2.97;;;14.70;99.90;;;;;;5049859;28;20462;-73
2023/08/27 00:28:06;;;;;;;5.05;2.75;;;14.70;99.90;;;;;;5050367;28;20057;-73
2023/08/27 00:30:32;;;;;;;5.15;3.20;;;14.70;99.90;;;;;;5048804;28;20086;-73
2023/08/27 00:32:57;;;;;;;6.85;3.30;;;14.70;99.90;;;;;;5049790;28;20044;-73
2023/08/27 00:35:23;;;;;;;7.18;3.17;;;14.60;99.90;;;;;;5046218;28;20041;-73
2023/08/27 00:37:49;;;;;;;6.90;3.72;;;14.60;99.90;;;;;;5015277;28;20041;-73
2023/08/27 00:40:15;;;;;;;4.50;2.60;;;14.60;99.90;;;;;;5030745;28;20037;-73
2023/08/27 00:42:41;;;;;;;4.63;2.83;;;14.60;99.90;;;;;;5030077;28;20505;-73
2023/08/27 00:45:07;;;;;;;4.80;2.72;;;14.60;99.90;;;;;;5034450;28;20094;-73
2023/08/27 00:47:37;;;;;;;5.68;2.55;;;14.60;99.90;;;;;;5034198;28;20774;-73
2023/08/27 07:21:40;;;;;;;3.95;2.38;;;14.60;99.90;;;;;;5111646;27;20914;-72
2023/08/27 07:24:06;;;;;;;5.93;2.50;;;14.60;99.90;;;;;;5096630;28;20160;-72
2023/08/27 07:26:32;;;;;;;6.20;2.53;;;14.60;99.90;;;;;;5093461;27;20054;-72
2023/08/27 07:28:58;;;;;;;4.93;2.17;;;14.60;99.90;;;;;;5076239;28;20031;-72
2023/08/27 07:31:24;;;;;;;4.85;2.08;;;14.50;99.90;;;;;;5111932;27;20413;-72
2023/08/27 07:33:49;;;;;;;4.05;2.00;;;14.60;99.90;;;;;;5095606;28;20058;-72
2023/08/27 07:36:15;;;;;;;5.57;2.45;;;14.60;99.90;;;;;;5077841;28;20035;-72
2023/08/27 07:38:41;;;;;;;5.38;1.95;;;14.60;99.90;;;;;;5093507;28;20043;-72
2023/08/27 07:41:08;;;;;;;3.60;1.75;;;14.60;99.90;;;;;;5114017;27;20044;-72
2023/08/27 07:43:34;;;;;;;5.47;1.77;;;14.60;99.90;;;;;;5116201;27;20127;-72
2023/08/27 07:45:59;;;;;;;5.38;1.85;;;14.60;99.90;;;;;;5093592;28;20027;-72
2023/08/27 07:48:25;;;;;;;4.38;1.95;;;14.60;99.90;;;;;;5115281;27;20492;-72
2023/08/27 07:50:51;;;;;;;4.25;1.58;;;14.70;99.90;;;;;;5095777;28;20595;-72
2023/08/27 07:53:16;;;;;;;2.55;1.20;;;14.80;99.90;;;;;;5114628;28;20055;-72
2023/08/27 07:55:42;;;;;;;4.15;1.65;;;14.80;99.90;;;;;;5095067;28;20104;-73
2023/08/27 07:58:07;;;;;;;7.25;1.60;;;14.90;99.90;;;;;;5092519;27;20534;-73
2023/08/27 08:00:33;;;;;;;2.95;1.48;;;14.90;99.90;;;;;;5077713;28;20050;-72
2023/08/27 08:02:59;;;;;;;4.13;1.40;;;15.00;99.90;;;;;;5107455;27;20051;-73
2023/08/27 08:05:24;;;;;;;3.15;1.50;;;15.00;99.90;;;;;;5094816;28;20043;-72
2023/08/27 08:07:50;;;;;;;3.45;1.38;;;15.00;99.90;;;;;;5121772;27;20036;-72
2023/08/27 08:10:16;;;;;;;3.85;1.33;;;15.10;99.90;;;;;;5113195;27;20036;-72
2023/08/27 08:12:41;;;;;;;4.72;1.48;;;15.10;99.90;;;;;;5092494;27;21218;-72
2023/08/27 08:15:07;;;;;;;4.03;1.48;;;15.10;99.90;;;;;;5112435;27;20073;-72
2023/08/27 08:17:33;;;;;;;2.60;1.33;;;15.20;99.90;;;;;;5111504;27;20400;-73
2023/08/27 08:19:58;;;;;;;5.40;1.30;;;15.20;99.90;;;;;;5126099;27;20542;-72
2023/08/27 08:22:24;;;;;;;2.97;1.40;;;15.20;99.90;;;;;;5112594;27;20071;-72
2023/08/27 08:24:50;;;;;;;3.25;1.42;;;15.30;99.90;;;;;;5115425;27;20034;-73
2023/08/27 08:27:15;;;;;;;3.65;1.35;;;15.30;99.90;;;;;;5111427;27;20035;-73
2023/08/27 08:29:41;;;;;;;3.63;1.88;;;15.30;99.90;;;;;;5103138;27;20046;-72
2023/08/27 08:32:06;;;;;;;4.85;1.20;;;15.40;99.90;;;;;;5071033;28;20043;-72
2023/08/27 08:34:32;;;;;;;3.67;1.50;;;15.40;99.90;;;;;;5062868;28;20047;-72
2023/08/27 08:36:57;;;;;;;3.13;1.50;;;15.40;99.90;;;;;;5081607;28;20063;-72
2023/08/27 08:39:29;;;;;;;3.20;1.40;;;15.40;99.90;;;;;;5084042;27;20047;-72
2023/08/27 08:42:29;;;;;;;6.05;1.70;;;15.50;99.90;;;;;;5080200;28;20393;-72
2023/08/27 08:45:00;;;;;;;3.00;1.55;;;15.60;99.90;;;;;;5083424;28;20186;-72
2023/08/27 08:47:27;;;;;;;5.68;1.75;;;15.60;99.90;;;;;;5079121;28;20043;-73
2023/08/27 08:49:56;;;;;;;3.15;1.63;;;15.60;99.90;;;;;;5082976;28;20039;-73
2023/08/27 08:52:26;;;;;;;3.67;1.83;;;15.70;99.90;;;;;;5104185;28;20059;-73
2023/08/27 08:54:54;;;;;;;2.72;1.45;;;15.70;99.90;;;;;;5102437;28;20383;-73
2023/08/27 08:57:22;;;;;;;5.60;1.70;;;15.70;99.90;;;;;;5078687;28;20061;-73
2023/08/27 08:59:48;;;;;;;4.03;2.22;;;15.80;99.90;;;;;;5083874;28;20085;-73
2023/08/27 09:02:14;;;;;;;4.10;1.70;;;15.80;99.90;;;;;;5099524;28;20043;-73
2023/08/27 09:04:41;;;;;;;3.20;1.65;;;15.90;99.90;;;;;;5100474;27;20035;-73
2023/08/27 09:07:07;;;;;;;3.33;1.70;;;15.90;99.90;;;;;;5097259;27;20599;-73
2023/08/27 09:09:32;;;;;;;3.72;1.95;;;15.90;99.90;;;;;;5096636;28;20046;-73
2023/08/27 09:12:00;;;;;;;4.72;1.88;;;16.00;99.90;;;;;;5099061;27;20043;-73
2023/08/27 09:14:25;;;;;;;3.67;1.60;;;16.00;99.90;;;;;;5082531;28;20031;-74
2023/08/27 09:16:51;;;;;;;3.78;1.73;;;16.00;99.90;;;;;;5098503;27;20036;-73
2023/08/27 09:19:17;;;;;;;3.10;1.65;;;16.00;99.90;;;;;;5101635;27;20089;-72
2023/08/27 09:21:43;;;;;;;5.18;1.80;;;16.10;99.90;;;;;;5115365;27;20055;-73
2023/08/27 09:24:09;;;;;;;3.88;2.03;;;16.20;99.90;;;;;;5092079;28;20619;-73
2023/08/27 09:26:34;;;;;;;4.07;1.85;;;16.20;99.90;;;;;;5088413;28;20035;-73
2023/08/27 09:29:01;;;;;;;4.82;2.10;;;16.20;99.90;;;;;;5110079;28;21234;-72
2023/08/27 09:31:37;;;;;;;2.78;1.73;;;16.30;99.90;;;;;;5109618;28;20039;-73
2023/08/27 09:34:03;;;;;;;4.50;1.83;;;16.40;99.90;;;;;;5090393;28;20357;-72
2023/08/27 09:36:31;;;;;;;4.32;2.00;;;16.40;99.90;;;;;;5090177;28;20348;-72
2023/08/27 09:38:57;;;;;;;5.13;2.30;;;16.40;99.90;;;;;;5089064;28;20386;-73
2023/08/27 09:41:23;;;;;;;3.75;1.55;;;16.50;99.90;;;;;;5088988;28;20069;-72
2023/08/27 09:43:53;;;;;;;4.05;2.17;;;16.50;99.90;;;;;;5109316;28;20040;-73
2023/08/27 09:46:19;;;;;;;4.13;2.03;;;16.50;99.90;;;;;;5091024;28;20064;-73
2023/08/27 09:48:57;;;;;;;2.95;1.63;;;16.50;99.90;;;;;;5088397;28;20036;-73
2023/08/27 09:51:23;;;;;;;3.03;1.83;;;16.50;99.90;;;;;;5091637;28;20084;-73
2023/08/27 09:53:49;;;;;;;3.25;2.08;;;16.50;99.90;;;;;;5074366;28;20039;-72
2023/08/27 09:56:16;;;;;;;5.20;2.00;;;16.60;99.90;;;;;;5090627;28;20404;-73
2023/08/27 09:58:41;;;;;;;3.80;1.83;;;16.70;99.90;;;;;;5091766;28;20392;-73
2023/08/27 10:01:08;;;;;;;5.38;1.88;;;16.70;99.90;;;;;;5087125;28;20034;-72
2023/08/27 10:03:34;;;;;;;6.45;1.85;;;16.80;99.90;;;;;;5108461;28;20039;-73
2023/08/27 10:06:02;;;;;;;3.38;1.80;;;16.90;99.90;;;;;;5091894;28;20032;-73
2023/08/27 10:08:28;;;;;;;6.00;2.30;;;16.90;99.90;;;;;;5092332;28;20504;-73
2023/08/27 10:11:06;;;;;;;3.00;1.40;;;16.90;99.90;;;;;;5091586;28;20057;-73
2023/08/27 10:13:32;;;;;;;4.93;1.65;;;16.90;99.90;;;;;;5091674;28;20048;-73
2023/08/27 10:15:58;;;;;;;3.90;1.77;;;16.90;99.90;;;;;;5089568;28;20720;-73
2023/08/27 10:18:25;;;;;;;3.97;2.00;;;16.90;99.90;;;;;;5091448;28;20560;-73
2023/08/27 10:20:52;;;;;;;3.45;2.00;;;16.90;99.90;;;;;;5085267;28;20129;-73
2023/08/27 10:23:20;;;;;;;7.40;2.00;;;16.90;99.90;;;;;;5087872;28;20508;-73
2023/08/27 10:25:47;;;;;;;3.85;1.90;;;16.90;99.90;;;;;;5083439;28;20439;-73
2023/08/27 10:28:15;;;;;;;4.90;2.25;;;17.00;99.90;;;;;;5089279;28;20032;-74
2023/08/27 10:30:43;;;;;;;4.82;1.95;;;16.90;99.90;;;;;;5086873;28;20164;-73
2023/08/27 10:33:09;;;;;;;4.85;2.17;;;17.00;99.90;;;;;;5087945;28;20078;-73
2023/08/27 10:35:38;;;;;;;3.55;1.98;;;16.90;99.90;;;;;;5087622;28;20075;-73
2023/08/27 10:38:06;;;;;;;4.45;1.98;;;17.10;99.90;;;;;;5086713;28;20347;-73
2023/08/27 10:40:34;;;;;;;4.15;1.80;;;17.10;99.90;;;;;;5086590;28;20040;-73
2023/08/27 10:43:07;;;;;;;4.72;1.63;;;17.20;99.90;;;;;;5087001;28;20062;-73
2023/08/27 10:45:36;;;;;;;3.65;1.92;;;17.20;99.90;;;;;;5087129;28;20127;-73
2023/08/27 10:48:09;;;;;;;2.92;1.70;;;17.20;99.90;;;;;;5081933;28;20511;-72
2023/08/27 10:50:48;;;;;;;3.20;1.70;;;17.10;99.90;;;;;;5079986;28;20048;-73
2023/08/27 10:53:15;;;;;;;4.05;2.25;;;17.10;99.90;;;;;;5082466;28;20050;-72
2023/08/27 10:55:45;;;;;;;4.75;1.95;;;17.10;99.90;;;;;;5085292;28;20036;-73
2023/08/27 10:58:19;;;;;;;3.05;1.80;;;17.10;99.90;;;;;;5067508;28;20469;-73
2023/08/27 11:01:00;;;;;;;3.60;1.85;;;17.10;99.90;;;;;;5081284;28;20043;-73
2023/08/27 11:03:26;;;;;;;3.25;1.90;;;17.20;99.90;;;;;;5078654;28;20024;-74
2023/08/27 11:06:45;;;;;;;4.78;2.08;;;17.20;99.90;;;;;;5082857;28;20036;-74
2023/08/27 11:09:17;;;;;;;3.60;1.88;;;17.30;99.90;;;;;;5060298;28;20104;-73
2023/08/27 11:11:48;;;;;;;4.53;2.22;;;17.30;99.90;;;;;;5084431;28;20036;-73
2023/08/27 11:14:14;;;;;;;5.13;2.00;;;17.20;99.90;;;;;;5079880;28;20047;-73
2023/08/27 11:17:00;;;;;;;3.33;1.70;;;17.10;99.90;;;;;;5076688;28;20032;-72
2023/08/27 11:19:37;;;;;;;2.58;1.20;;;16.80;99.90;;;;;;5077360;28;20220;-72
2023/08/27 11:22:23;;;;;;;2.72;1.30;;;16.40;99.90;;;;;;5097116;28;20322;-73
2023/08/27 11:24:54;;;;;;;2.08;1.33;;;16.00;99.90;;;;;;5082420;28;20489;-72
2023/08/27 11:27:22;;;;;;;3.00;1.33;;;15.80;99.90;;;;;;5079254;28;20032;-72
2023/08/27 11:29:50;;;;;;;2.28;1.10;;;15.70;99.90;;;;;;5097435;28;20054;-72
2023/08/27 11:32:16;;;;;;;2.40;1.50;;;15.60;99.90;;;;;;5081098;28;20036;-72
2023/08/27 11:34:44;;;;;;;3.15;1.30;;;15.60;99.90;;;;;;5099920;28;20040;-72
2023/08/27 11:37:11;;;;;;;2.10;1.23;;;15.60;99.90;;;;;;5081426;28;20095;-72
2023/08/27 11:39:38;;;;;;;3.03;1.20;;;15.70;99.90;;;;;;5082899;28;20508;-72
2023/08/27 11:42:11;;;;;;;5.85;1.55;;;15.70;99.90;;;;;;5080510;28;20519;-72
2023/08/27 11:44:50;;;;;;;3.53;1.33;;;15.80;99.90;;;;;;5078965;28;20397;-72
2023/08/27 11:47:17;;;;;;;2.88;1.38;;;15.80;99.90;;;;;;5077239;28;20502;-72
2023/08/27 11:49:42;;;;;;;5.07;1.75;;;15.90;99.90;;;;;;5081723;28;20028;-72
2023/08/27 11:52:08;;;;;;;3.30;1.60;;;15.80;99.90;;;;;;5081553;28;20046;-72
2023/08/27 11:54:35;;;;;;;3.58;2.00;;;15.90;99.90;;;;;;5081418;28;20039;-72
2023/08/27 11:57:04;;;;;;;5.20;2.33;;;15.90;99.90;;;;;;5080712;28;20504;-71
2023/08/27 11:59:30;;;;;;;4.15;2.05;;;15.80;99.90;;;;;;5079135;28;20092;-71
2023/08/27 12:01:57;;;;;;;4.07;2.08;;;15.80;99.90;;;;;;5098224;28;20042;-71
2023/08/27 12:04:29;;;;;;;5.55;2.40;;;15.80;99.90;;;;;;5095578;28;20503;-72
2023/08/27 12:07:00;;;;;;;4.60;2.13;;;15.80;99.90;;;;;;5115543;27;20488;-71
2023/08/27 12:09:32;;;;;;;2.83;1.40;;;15.70;99.90;;;;;;5085408;28;20140;-72
2023/08/27 12:12:07;;;;;;;3.38;1.50;;;15.70;99.90;;;;;;5083717;28;20114;-71
2023/08/27 12:14:34;;;;;;;2.92;1.63;;;15.50;99.90;;;;;;5093067;28;20040;-70
2023/08/27 12:17:07;;;;;;;4.82;1.73;;;15.40;99.90;;;;;;5071127;28;20349;-71
2023/08/27 12:19:34;;;;;;;5.07;1.92;;;15.30;99.90;;;;;;5087306;28;20039;-71
2023/08/27 12:21:59;;;;;;;4.20;1.80;;;15.20;99.90;;;;;;5084264;28;20538;-71
2023/08/27 12:24:31;;;;;;;2.95;1.48;;;15.20;99.90;;;;;;5086970;28;20036;-71
2023/08/27 12:27:06;;;;;;;2.58;1.38;;;15.10;99.90;;;;;;5105741;28;20104;-71
2023/08/27 12:29:45;;;;;;;3.03;1.42;;;15.10;99.90;;;;;;5105439;28;20036;-71
2023/08/27 12:32:12;;;;;;;3.03;1.50;;;15.20;99.90;;;;;;5086696;28;20393;-71
2023/08/27 12:34:51;;;;;;;3.50;1.90;;;15.20;99.90;;;;;;5087613;28;20047;-71
2023/08/27 12:37:19;;;;;;;4.68;1.90;;;15.30;99.90;;;;;;5086518;28;20560;-71
2023/08/27 12:39:46;;;;;;;3.63;1.90;;;15.40;99.90;;;;;;5086662;28;20393;-72
2023/08/27 12:42:14;;;;;;;6.47;2.20;;;15.50;99.90;;;;;;5104707;28;20044;-71
2023/08/27 12:44:40;;;;;;;4.55;2.28;;;15.50;99.90;;;;;;5106272;28;20080;-71
2023/08/27 12:47:07;;;;;;;5.32;1.95;;;15.60;99.90;;;;;;5087755;28;20497;-71
2023/08/27 12:49:33;;;;;;;8.10;2.65;;;15.80;99.90;;;;;;5108285;28;20050;-71
2023/08/27 12:51:59;;;;;;;5.97;2.90;;;15.80;99.90;;;;;;5107335;28;20047;-72
2023/08/27 12:54:25;;;;;;;5.82;2.80;;;16.00;99.90;;;;;;5070810;28;20027;-71
2023/08/27 12:56:51;;;;;;;5.60;2.22;;;16.10;99.90;;;;;;5101245;28;20313;-71
2023/08/27 12:59:19;;;;;;;5.82;2.42;;;16.20;99.90;;;;;;5104506;28;20428;-72
2023/08/27 13:01:45;;;;;;;4.43;1.80;;;16.20;99.90;;;;;;5089623;28;20031;-72
2023/08/27 13:04:11;;;;;;;2.85;1.30;;;16.20;99.90;;;;;;5106912;28;20055;-72
2023/08/27 13:06:37;;;;;;;2.05;1.00;;;16.20;99.90;;;;;;5087022;28;20035;-72
2023/08/27 13:09:04;;;;;;;3.10;1.02;;;16.10;99.90;;;;;;5106237;28;20167;-72
2023/08/27 13:11:29;;;;;;;1.40;0.75;;;16.00;99.90;;;;;;5107202;28;20053;-72
2023/08/27 13:13:55;;;;;;;1.60;0.77;;;16.00;99.90;;;;;;5107503;28;20039;-72
2023/08/27 13:16:22;;;;;;;2.38;0.90;;;16.00;99.90;;;;;;5107243;28;20096;-72
2023/08/27 13:18:47;;;;;;;1.80;0.80;;;16.00;99.90;;;;;;5086498;28;20043;-72
2023/08/27 13:21:13;;;;;;;2.47;1.23;;;16.00;99.90;;;;;;5080675;28;20096;-72
2023/08/27 13:23:39;;;;;;;1.48;0.70;;;16.10;99.90;;;;;;5087194;28;20352;-72
2023/08/27 13:26:04;;;;;;;2.13;0.88;;;16.10;99.90;;;;;;5086512;28;20032;-72
2023/08/27 13:28:30;;;;;;;1.52;0.77;;;16.10;99.90;;;;;;5081283;28;20042;-72
2023/08/27 13:30:56;;;;;;;1.13;0.50;;;16.10;99.90;;;;;;5084190;28;20052;-72
2023/08/27 13:33:21;;;;;;;1.20;0.63;;;16.10;99.90;;;;;;5105804;27;20725;-72
2023/08/27 13:35:47;;;;;;;1.67;0.77;;;16.10;99.90;;;;;;5082186;28;20477;-72
2023/08/27 13:38:12;;;;;;;1.55;0.70;;;16.10;99.90;;;;;;5104527;28;20042;-72
2023/08/27 13:40:38;;;;;;;1.50;0.60;;;16.10;99.90;;;;;;5116659;27;21492;-72
2023/08/27 13:43:06;;;;;;;2.10;0.60;;;16.10;99.90;;;;;;5086837;28;20031;-72
2023/08/27 13:45:32;;;;;;;1.60;0.80;;;16.10;99.90;;;;;;5069596;28;20251;-72
2023/08/27 13:47:58;;;;;;;1.67;0.80;;;16.10;99.90;;;;;;5085556;28;20385;-72
2023/08/27 13:50:23;;;;;;;1.98;0.88;;;16.10;99.90;;;;;;5087067;28;20138;-72
2023/08/27 13:52:49;;;;;;;3.60;1.20;;;16.10;99.90;;;;;;5087678;28;20036;-72
2023/08/27 13:55:15;;;;;;;1.80;0.68;;;16.10;99.90;;;;;;5089044;28;20028;-72
2023/08/27 13:57:41;;;;;;;1.73;0.70;;;16.00;99.90;;;;;;5086661;28;20489;-72
2023/08/27 14:00:08;;;;;;;2.72;1.00;;;16.10;99.90;;;;;;5106153;28;20044;-72
2023/08/27 14:02:34;;;;;;;2.40;1.00;;;16.10;99.90;;;;;;5087576;28;20043;-72
2023/08/27 14:05:00;;;;;;;1.80;0.80;;;16.20;99.90;;;;;;5104422;28;20027;-72
2023/08/27 14:07:25;;;;;;;2.08;0.93;;;16.30;99.90;;;;;;5071333;28;20032;-72
2023/08/27 14:09:51;;;;;;;2.30;0.95;;;16.40;99.90;;;;;;5087997;28;20402;-72
2023/08/27 14:12:17;;;;;;;2.20;1.05;;;16.40;99.90;;;;;;5086494;28;20172;-72
2023/08/27 14:14:43;;;;;;;1.10;0.60;;;16.50;99.90;;;;;;5087168;28;20508;-72
2023/08/27 14:17:11;;;;;;;1.58;0.60;;;16.50;99.90;;;;;;5088521;28;20032;-72
2023/08/27 14:19:36;;;;;;;1.80;0.80;;;16.50;99.90;;;;;;5091312;28;20051;-72
2023/08/27 14:22:02;;;;;;;1.10;0.50;;;16.50;99.90;;;;;;5087430;28;20051;-72
2023/08/27 14:24:28;;;;;;;1.25;0.60;;;16.50;99.90;;;;;;5106756;28;20048;-72
2023/08/27 14:26:53;;;;;;;2.92;0.85;;;16.50;99.90;;;;;;5088175;28;20047;-73
2023/08/27 14:29:19;;;;;;;2.17;0.60;;;16.40;99.90;;;;;;5070435;28;20080;-73
2023/08/27 14:31:44;;;;;;;2.28;0.60;;;16.30;99.90;;;;;;5085894;28;20046;-72
2023/08/27 14:34:10;;;;;;;1.92;0.65;;;16.30;99.90;;;;;;5085652;28;20031;-72
2023/08/27 14:36:36;;;;;;;2.80;0.63;;;16.20;99.90;;;;;;5070745;28;20043;-72
2023/08/27 14:39:02;;;;;;;1.05;0.50;;;16.20;99.90;;;;;;5105074;28;20042;-72
2023/08/27 14:41:29;;;;;;;0.98;0.40;;;16.10;99.90;;;;;;5087712;28;20031;-73
2023/08/27 14:43:55;;;;;;;1.25;0.65;;;16.10;99.90;;;;;;5069857;28;20148;-73
2023/08/27 14:46:21;;;;;;;0.75;0.40;;;16.10;99.90;;;;;;5086410;28;20077;-72
2023/08/27 14:48:50;;;;;;;1.58;0.38;;;16.10;99.90;;;;;;5069312;28;20434;-73
2023/08/27 14:51:16;;;;;;;0.98;0.50;;;16.10;99.90;;;;;;5085802;28;20036;-74
2023/08/27 14:53:43;;;;;;;1.95;0.40;;;16.00;99.90;;;;;;5085678;28;20485;-73
2023/08/27 14:56:10;;;;;;;2.00;0.68;;;16.00;99.90;;;;;;5118861;27;20042;-73
2023/08/27 14:58:36;;;;;;;1.55;0.35;;;16.00;99.90;;;;;;5100676;28;20697;-73
2023/08/27 15:01:02;;;;;;;1.80;0.60;;;16.00;99.90;;;;;;5112950;27;20042;-72
2023/08/27 15:03:28;;;;;;;0.57;0.30;;;15.90;99.90;;;;;;5086714;28;20389;-73
2023/08/27 15:05:54;;;;;;;1.00;0.47;;;15.90;99.90;;;;;;5069148;28;20035;-73
2023/08/27 15:08:19;;;;;;;0.77;0.40;;;15.90;99.90;;;;;;5084485;28;20047;-73
2023/08/27 15:10:45;;;;;;;1.38;0.50;;;15.90;99.90;;;;;;5100931;28;20027;-73
2023/08/27 15:13:10;;;;;;;0.85;0.50;;;15.80;99.90;;;;;;5084479;28;20528;-73
2023/08/27 15:15:36;;;;;;;2.92;0.82;;;15.90;99.90;;;;;;5087123;28;20036;-73
2023/08/27 15:18:02;;;;;;;2.55;0.95;;;15.80;99.90;;;;;;5107862;28;20546;-73
2023/08/27 15:20:27;;;;;;;2.53;1.27;;;15.90;99.90;;;;;;5086098;28;20151;-72
2023/08/27 15:22:53;;;;;;;2.45;1.23;;;15.90;99.90;;;;;;5086633;28;20047;-72
2023/08/27 15:25:18;;;;;;;2.58;0.98;;;15.90;99.90;;;;;;5070602;28;20425;-73
2023/08/27 15:27:44;;;;;;;4.25;1.50;;;15.90;99.90;;;;;;5087941;28;20389;-72
2023/08/27 15:30:10;;;;;;;2.78;1.40;;;16.00;99.90;;;;;;5086187;28;20351;-73
2023/08/27 15:32:36;;;;;;;1.95;1.08;;;16.00;99.90;;;;;;5086214;28;20503;-73
2023/08/27 15:35:04;;;;;;;2.83;1.23;;;16.10;99.90;;;;;;5103436;28;20070;-73
2023/08/27 15:37:30;;;;;;;2.00;0.82;;;16.10;99.90;;;;;;5104338;28;20051;-73
2023/08/27 15:39:57;;;;;;;1.33;0.70;;;16.10;99.90;;;;;;5103721;28;20742;-73
2023/08/27 15:42:32;;;;;;;1.65;0.90;;;16.10;99.90;;;;;;5088832;28;20481;-73
2023/08/27 15:44:57;;;;;;;1.25;0.70;;;16.10;99.90;;;;;;5091837;28;20058;-73
2023/08/27 15:47:23;;;;;;;1.83;0.60;;;16.10;99.90;;;;;;5120654;27;20487;-73
2023/08/27 15:49:49;;;;;;;1.30;0.65;;;16.20;99.90;;;;;;5105974;28;20062;-73
2023/08/27 15:52:15;;;;;;;1.20;0.70;;;16.20;99.90;;;;;;5090522;28;20550;-73
2023/08/27 15:54:41;;;;;;;1.67;0.43;;;16.10;99.90;;;;;;5109204;28;20031;-73
2023/08/27 15:57:06;;;;;;;1.58;0.70;;;16.10;99.90;;;;;;5090019;28;20031;-73
2023/08/27 15:59:32;;;;;;;1.92;0.70;;;16.20;99.90;;;;;;5103641;28;20095;-74
2023/08/27 16:01:58;;;;;;;1.05;0.60;;;16.10;99.90;;;;;;5071989;28;20136;-73
2023/08/27 16:04:24;;;;;;;0.77;0.43;;;16.20;99.90;;;;;;5090444;28;20108;-73
2023/08/27 16:06:50;;;;;;;1.42;0.68;;;16.20;99.90;;;;;;5089870;28;20484;-73
2023/08/27 16:09:15;;;;;;;1.63;0.60;;;16.20;99.90;;;;;;5075364;28;20046;-73
2023/08/27 16:11:41;;;;;;;2.03;0.65;;;16.20;99.90;;;;;;5108204;28;20120;-73
2023/08/27 16:14:06;;;;;;;2.67;0.50;;;16.10;99.90;;;;;;5090753;28;20039;-73
2023/08/27 16:16:32;;;;;;;1.45;0.50;;;16.10;99.90;;;;;;5105864;28;20469;-73
2023/08/27 16:18:58;;;;;;;2.47;0.70;;;16.10;99.90;;;;;;5087958;28;20040;-73
2023/08/27 16:21:24;;;;;;;2.28;0.70;;;16.10;99.90;;;;;;5098961;28;20051;-74
2023/08/27 16:23:50;;;;;;;2.40;0.50;;;16.10;99.90;;;;;;5107240;28;20053;-74
2023/08/27 16:26:15;;;;;;;5.07;0.80;;;16.00;99.90;;;;;;5084648;28;20136;-74
2023/08/27 16:28:41;;;;;;;1.88;0.50;;;15.90;99.90;;;;;;5066776;28;20040;-74
2023/08/27 16:31:07;;;;;;;1.00;0.50;;;15.90;99.90;;;;;;5078013;28;20043;-73
2023/08/27 16:33:32;;;;;;;1.15;0.40;;;15.90;99.90;;;;;;5072960;28;20127;-74
2023/08/27 16:35:58;;;;;;;1.70;0.70;;;15.90;99.90;;;;;;5104257;28;20415;-73
2023/08/27 16:38:24;;;;;;;1.17;0.50;;;15.80;99.90;;;;;;5081987;28;20091;-73
2023/08/27 16:40:50;;;;;;;2.08;0.70;;;15.80;99.90;;;;;;5114306;27;20130;-74
2023/08/27 16:43:15;;;;;;;0.88;0.40;;;15.80;99.90;;;;;;5080720;28;20115;-73
2023/08/27 16:45:42;;;;;;;0.73;0.30;;;15.70;99.90;;;;;;5081097;28;20063;-73
2023/08/27 16:48:08;;;;;;;0.63;0.40;;;15.70;99.90;;;;;;5102175;28;20039;-73
2023/08/27 16:50:37;;;;;;;2.08;0.80;;;15.70;99.90;;;;;;5085011;28;20056;-73
2023/08/27 16:53:03;;;;;;;1.77;0.80;;;15.60;99.90;;;;;;5081555;28;20082;-72
2023/08/27 16:55:28;;;;;;;2.95;0.63;;;15.60;99.90;;;;;;5099479;28;20092;-74
2023/08/27 16:57:54;;;;;;;1.67;0.70;;;15.60;99.90;;;;;;5083298;28;20023;-74
2023/08/27 17:00:20;;;;;;;1.27;0.82;;;15.70;99.90;;;;;;5106415;28;20793;-74
2023/08/27 17:02:46;;;;;;;1.50;0.80;;;15.70;99.90;;;;;;5108141;28;20032;-74
2023/08/27 17:05:11;;;;;;;1.35;0.68;;;15.70;99.90;;;;;;5105800;28;20393;-73
2023/08/27 17:07:39;;;;;;;1.20;0.63;;;15.70;99.90;;;;;;5086602;28;20500;-73
2023/08/27 17:10:06;;;;;;;0.98;0.70;;;15.70;99.90;;;;;;5088020;28;20070;-73
2023/08/27 17:12:31;;;;;;;1.25;0.60;;;15.70;99.90;;;;;;5106381;28;20043;-74
2023/08/27 17:14:57;;;;;;;1.00;0.60;;;15.70;99.90;;;;;;5088629;28;20047;-73
2023/08/27 17:17:23;;;;;;;2.38;0.90;;;15.60;99.90;;;;;;5071783;28;20081;-73
2023/08/27 17:19:48;;;;;;;1.98;0.82;;;15.60;99.90;;;;;;5065121;28;20493;-74
2023/08/27 17:22:14;;;;;;;2.28;0.90;;;15.60;99.90;;;;;;5085940;28;20044;-74
2023/08/27 17:24:40;;;;;;;1.75;1.00;;;15.50;99.90;;;;;;5067378;28;20044;-74
2023/08/27 17:27:05;;;;;;;2.85;1.00;;;15.50;99.90;;;;;;5083387;28;20032;-74
2023/08/27 17:29:31;;;;;;;3.63;0.90;;;15.50;99.90;;;;;;5086129;28;20077;-74
2023/08/27 17:31:57;;;;;;;2.00;0.90;;;15.50;99.90;;;;;;5066443;28;20405;-74
2023/08/27 17:34:22;;;;;;;7.18;1.20;;;15.50;99.90;;;;;;5075768;28;20633;-74
2023/08/27 17:36:48;;;;;;;2.15;1.20;;;15.50;99.90;;;;;;5059645;28;20039;-74
2023/08/27 17:39:14;;;;;;;1.75;0.88;;;15.50;99.90;;;;;;5078043;28;20032;-73
2023/08/27 17:41:49;;;;;;;5.05;1.40;;;15.50;99.90;;;;;;5080830;28;20040;-73
2023/08/27 17:44:15;;;;;;;2.05;1.17;;;15.50;99.90;;;;;;5073102;28;20405;-73
2023/08/27 17:46:41;;;;;;;2.33;0.90;;;15.50;99.90;;;;;;5084933;28;20089;-73
2023/08/27 17:49:08;;;;;;;2.00;1.10;;;15.50;99.90;;;;;;5084479;28;20482;-73
2023/08/27 17:51:33;;;;;;;2.95;0.88;;;15.40;99.90;;;;;;5078258;28;20406;-73
2023/08/27 17:53:59;;;;;;;2.63;0.90;;;15.40;99.90;;;;;;5084129;28;20032;-72
2023/08/27 17:56:24;;;;;;;1.20;0.57;;;15.30;99.90;;;;;;5067529;28;20100;-72
2023/08/27 17:58:50;;;;;;;1.58;0.55;;;15.30;99.90;;;;;;5079792;28;20047;-73
2023/08/27 18:01:16;;;;;;;1.23;0.63;;;15.20;99.90;;;;;;5066152;28;20028;-73
2023/08/27 18:03:42;;;;;;;2.17;0.60;;;15.20;99.90;;;;;;5085757;28;20040;-73
2023/08/27 18:06:07;;;;;;;5.22;0.68;;;15.10;99.90;;;;;;5080800;28;20039;-73
2023/08/27 18:08:33;;;;;;;1.70;0.57;;;15.10;99.90;;;;;;5079901;28;20082;-73
2023/08/27 18:10:59;;;;;;;1.48;0.63;;;15.00;99.90;;;;;;5082408;28;20669;-72
2023/08/27 18:13:25;;;;;;;1.45;0.50;;;15.00;99.90;;;;;;5078251;28;20090;-73
2023/08/27 18:15:50;;;;;;;1.27;0.50;;;14.90;99.90;;;;;;5083106;28;20375;-72
2023/08/27 18:18:17;;;;;;;1.13;0.43;;;14.90;99.90;;;;;;5083921;28;20123;-72
2023/08/27 18:20:42;;;;;;;1.55;0.60;;;14.90;99.90;;;;;;5086552;28;20489;-72
2023/08/27 18:23:08;;;;;;;1.23;0.57;;;14.90;99.90;;;;;;5080668;28;20042;-72
2023/08/27 18:25:35;;;;;;;1.67;0.55;;;14.80;99.90;;;;;;5088164;28;20036;-72
2023/08/27 18:28:01;;;;;;;1.85;0.70;;;14.80;99.90;;;;;;5082394;28;20036;-73
2023/08/27 18:30:30;;;;;;;0.93;0.30;;;14.70;99.90;;;;;;5082987;28;20515;-72
2023/08/27 18:32:56;;;;;;;2.35;0.93;;;14.70;99.90;;;;;;5082875;28;20048;-72
2023/08/27 18:35:22;;;;;;;2.72;0.68;;;14.70;99.90;;;;;;5074265;28;20050;-72
2023/08/27 18:37:47;;;;;;;1.05;0.43;;;14.70;99.90;;;;;;5085694;28;20044;-72
2023/08/27 18:40:13;;;;;;;1.25;0.52;;;14.60;99.90;;;;;;5079600;28;20076;-72
2023/08/27 18:42:39;;;;;;;1.83;0.50;;;14.60;99.90;;;;;;5084534;28;20409;-72
2023/08/27 18:45:06;;;;;;;0.73;0.30;;;14.60;99.90;;;;;;5082748;28;20028;-72
2023/08/27 18:47:31;;;;;;;0.80;0.30;;;14.50;99.90;;;;;;5084575;28;20082;-72
2023/08/27 18:49:57;;;;;;;2.20;0.60;;;14.50;99.90;;;;;;5080475;28;20571;-72
2023/08/27 18:52:23;;;;;;;2.30;0.75;;;14.50;99.90;;;;;;5080304;28;20032;-72
2023/08/27 18:54:48;;;;;;;1.13;0.50;;;14.50;99.90;;;;;;5082111;28;20047;-72
2023/08/27 18:57:14;;;;;;;1.27;0.50;;;14.50;99.90;;;;;;5062217;28;20059;-72
2023/08/27 18:59:39;;;;;;;1.35;0.55;;;14.40;99.90;;;;;;5080625;28;20116;-72
2023/08/27 19:02:08;;;;;;;1.77;0.70;;;14.40;99.90;;;;;;5063807;28;20086;-72
2023/08/27 19:04:34;;;;;;;1.80;0.50;;;14.40;99.90;;;;;;5082153;28;20035;-72
2023/08/27 19:06:59;;;;;;;1.88;0.50;;;14.40;99.90;;;;;;5078879;28;20039;-73
2023/08/27 19:09:25;;;;;;;0.93;0.50;;;14.30;99.90;;;;;;5080073;28;20040;-72
2023/08/27 19:11:51;;;;;;;1.00;0.40;;;14.30;99.90;;;;;;5080583;28;20072;-72
2023/08/27 19:14:16;;;;;;;1.95;0.60;;;14.30;99.90;;;;;;5081052;28;20055;-72
2023/08/27 19:16:44;;;;;;;1.35;0.70;;;14.30;99.90;;;;;;5081198;28;20509;-72
2023/08/27 19:19:10;;;;;;;1.05;0.52;;;14.20;99.90;;;;;;5062043;28;20094;-72